Terminal Aerodrome Forecast
Issued by NWS Anchorage, AK

Home | Current Version | Previous Version | Text Only | Print | Product List | Glossary On
Versions: 1 2 3 4 5 6 7 8 9 10 11 12 13 14 15 16 17 18 19 20 21 22 23 24 25 26 27 28 29 30 31 32 33 34 35 36 37 38 39
000
FTAK31 PANC 021738
TAFANC
TAF
PANC 021738Z 0218/0324 14010KT P6SM -RA FEW008 SCT045 OVC060
      TEMPO 0218/0220 P6SM -RA BKN035 OVC060
     FM030000 17008KT P6SM -SHRA SCT025 OVC045
     FM031500 15010KT P6SM -SHRA SCT025 BKN045=

USA.gov is the U.S. government's official web portal to all federal, state and local government web resources and services.